| time (UTC) | temp F | wind direction | speed MPH | gust MPH | rain 1hr in | rain 24hr in | rain mn in | humidity % | barometer mb |
| 20260903200122 | 81 | 149 | 7.0 | 12.0 | 0.00 | 0.00 | 0.00 | 14 | 1016.3 |
| 20260903195125 | 81 | 199 | 6.0 | 9.0 | 0.00 | 0.00 | 0.00 | 15 | 1016.4 |
| 20260903194222 | 80 | 197 | 8.0 | 15.0 | 0.00 | 0.00 | 0.00 | 17 | 1016.5 |
| 20260903193224 | 79 | 210 | 5.0 | 14.0 | 0.00 | 0.00 | 0.00 | 20 | 1016.7 |
| 20260903192223 | 78 | 180 | 0.0 | 1.0 | 0.00 | 0.00 | 0.00 | 22 | 1017.1 |
| 20260903191224 | 78 | 146 | 6.0 | 12.0 | 0.00 | 0.00 | 0.00 | 19 | 1017.1 |
| 20260903185224 | 78 | 145 | 5.0 | 8.0 | 0.00 | 0.00 | 0.00 | 19 | 1017.3 |
| 20260903184322 | 77 | 168 | 4.0 | 7.0 | 0.00 | 0.00 | 0.00 | 20 | 1017.4 |
| 20260903183323 | 76 | 167 | 5.0 | 10.0 | 0.00 | 0.00 | 0.00 | 23 | 1017.4 |
| 20260903182324 | 76 | 125 | 8.0 | 15.0 | 0.00 | 0.00 | 0.00 | 20 | 1017.6 |
| 20260903180339 | 77 | 184 | 6.0 | 9.0 | 0.00 | 0.00 | 0.00 | 19 | 1018.2 |
| 20260903175423 | 77 | 155 | 7.0 | 11.0 | 0.00 | 0.00 | 0.00 | 19 | 1018.2 |
| 20260903174423 | 76 | 177 | 5.0 | 9.0 | 0.00 | 0.00 | 0.00 | 19 | 1018.2 |
| 20260903173423 | 75 | 156 | 8.0 | 12.0 | 0.00 | 0.00 | 0.00 | 21 | 1018.2 |
| 20260903170522 | 73 | 177 | 6.0 | 9.0 | 0.00 | 0.00 | 0.00 | 22 | 1018.5 |
| 20260903165524 | 73 | 158 | 6.0 | 10.0 | 0.00 | 0.00 | 0.00 | 20 | 1018.3 |
| 20260903164623 | 74 | 139 | 5.0 | 8.0 | 0.00 | 0.00 | 0.00 | 22 | 1018.3 |
| 20260903163638 | 73 | 126 | 5.0 | 9.0 | 0.00 | 0.00 | 0.00 | 21 | 1018.3 |
| 20260903162725 | 72 | 167 | 7.0 | 10.0 | 0.00 | 0.00 | 0.00 | 23 | 1018.3 |
| 20260903161724 | 71 | 155 | 5.0 | 9.0 | 0.00 | 0.00 | 0.00 | 26 | 1018.4 |
| 20260903160725 | 70 | 147 | 7.0 | 11.0 | 0.00 | 0.00 | 0.00 | 29 | 1018.3 |
| 20260903155725 | 70 | 139 | 5.0 | 9.0 | 0.00 | 0.00 | 0.00 | 30 | 1018.4 |
| 20260903154724 | 70 | 148 | 3.0 | 6.0 | 0.00 | 0.00 | 0.00 | 32 | 1018.4 |
| 20260903153724 | 69 | 153 | 2.0 | 5.0 | 0.00 | 0.00 | 0.00 | 36 | 1018.4 |
| 20260903151823 | 69 | 135 | 2.0 | 3.0 | 0.00 | 0.00 | 0.00 | 37 | 1018.9 |
| 20260903150922 | 70 | 286 | 0.0 | 1.0 | 0.00 | 0.00 | 0.00 | 29 | 1018.8 |
| 20260903150822 | 70 | 270 | 0.0 | 1.0 | 0.00 | 0.00 | 0.00 | 29 | 1018.7 |
| 20260903145822 | 69 | 270 | 0.0 | 0.0 | 0.00 | 0.00 | 0.00 | 27 | 1018.8 |
| 20260903144824 | 67 | 270 | 0.0 | 0.0 | 0.00 | 0.00 | 0.00 | 25 | 1018.8 |
| 20260903143823 | 67 | 315 | 0.0 | 0.0 | 0.00 | 0.00 | 0.00 | 26 | 1018.9 |
| 20260903142923 | 65 | 315 | 0.0 | 0.0 | 0.00 | 0.00 | 0.00 | 25 | 1018.7 |
| 20260903141924 | 63 | 315 | 1.0 | 2.0 | 0.00 | 0.00 | 0.00 | 25 | 1018.7 |
| 20260903141023 | 62 | 315 | 0.0 | 0.0 | 0.00 | 0.00 | 0.00 | 25 | 1018.5 |
| 20260903140924 | 62 | 315 | 0.0 | 0.0 | 0.00 | 0.00 | 0.00 | 25 | 1018.7 |
| 20260903135924 | 61 | 315 | 0.0 | 5.0 | 0.00 | 0.00 | 0.00 | 25 | 1018.7 |
| 20260903135023 | 61 | 315 | 3.0 | 6.0 | 0.00 | 0.00 | 0.00 | 25 | 1018.5 |
| 20260903134122 | 59 | 292 | 4.0 | 5.0 | 0.00 | 0.00 | 0.00 | 26 | 1018.4 |
| 20260903132223 | 58 | 292 | 0.0 | 1.0 | 0.00 | 0.00 | 0.00 | 28 | 1018.2 |
| 20260903131224 | 59 | 292 | 1.0 | 2.0 | 0.00 | 0.00 | 0.00 | 26 | 1018.2 |
| 20260903130225 | 58 | 292 | 1.0 | 2.0 | 0.00 | 0.00 | 0.00 | 29 | 1017.9 |
| 20260903125323 | 56 | 292 | 0.0 | 1.0 | 0.00 | 0.00 | 0.00 | 33 | 1017.8 |
| 20260903124422 | 55 | 292 | 4.0 | 5.0 | 0.00 | 0.00 | 0.00 | 34 | 1017.8 |
| 20260903122426 | 57 | 292 | 0.0 | 0.0 | 0.00 | 0.00 | 0.00 | 31 | 1017.8 |
| 20260903121424 | 56 | 292 | 4.0 | 6.0 | 0.00 | 0.00 | 0.00 | 32 | 1017.7 |
| 20260903120440 | 55 | 292 | 0.0 | 0.0 | 0.00 | 0.00 | 0.00 | 33 | 1017.7 |
| 20260903115423 | 55 | 292 | 0.0 | 0.0 | 0.00 | 0.00 | 0.00 | 34 | 1017.7 |
| 20260903113424 | 57 | 292 | 0.0 | 0.0 | 0.00 | 0.00 | 0.00 | 29 | 1017.7 |
| 20260903112523 | 58 | 292 | 0.0 | 0.0 | 0.00 | 0.00 | 0.00 | 28 | 1017.8 |
| 20260903111523 | 58 | 292 | 0.0 | 0.0 | 0.00 | 0.00 | 0.00 | 27 | 1017.7 |
| 20260903110525 | 59 | 292 | 0.0 | 1.0 | 0.00 | 0.00 | 0.00 | 26 | 1017.7 |
| 20260903105523 | 59 | 292 | 2.0 | 3.0 | 0.00 | 0.00 | 0.00 | 26 | 1017.6 |
| 20260903104524 | 59 | 292 | 3.0 | 5.0 | 0.00 | 0.00 | 0.00 | 26 | 1017.7 |
| 20260903103623 | 61 | 292 | 2.0 | 3.0 | 0.00 | 0.00 | 0.00 | 24 | 1017.6 |
| 20260903102622 | 61 | 292 | 4.0 | 5.0 | 0.00 | 0.00 | 0.00 | 24 | 1017.5 |
| 20260903102522 | 61 | 292 | 3.0 | 5.0 | 0.00 | 0.00 | 0.00 | 24 | 1017.5 |
| 20260903101523 | 61 | 292 | 4.0 | 6.0 | 0.00 | 0.00 | 0.00 | 25 | 1017.5 |
| 20260903100622 | 60 | 292 | 3.0 | 4.0 | 0.00 | 0.00 | 0.00 | 25 | 1017.4 |
| 20260903095625 | 59 | 292 | 6.0 | 9.0 | 0.00 | 0.00 | 0.00 | 27 | 1017.4 |
| 20260903094623 | 60 | 292 | 0.0 | 1.0 | 0.00 | 0.00 | 0.00 | 25 | 1017.4 |
| 20260903093722 | 62 | 292 | 0.0 | 0.0 | 0.00 | 0.00 | 0.00 | 23 | 1017.3 |
| 20260903092724 | 64 | 292 | 0.0 | 0.0 | 0.00 | 0.00 | 0.00 | 20 | 1017.3 |
| 20260903092623 | 64 | 292 | 1.0 | 3.0 | 0.00 | 0.00 | 0.00 | 20 | 1017.2 |
| 20260903091622 | 62 | 292 | 1.0 | 2.0 | 0.00 | 0.00 | 0.00 | 23 | 1017.2 |
| 20260903090641 | 63 | 249 | 1.0 | 2.0 | 0.00 | 0.00 | 0.00 | 21 | 1017.1 |
| 20260903085722 | 64 | 247 | 0.0 | 0.0 | 0.00 | 0.00 | 0.00 | 20 | 1017.0 |
| 20260903084722 | 65 | 247 | 2.0 | 4.0 | 0.00 | 0.00 | 0.00 | 20 | 1017.0 |
| 20260903083724 | 66 | 247 | 5.0 | 6.0 | 0.00 | 0.00 | 0.00 | 19 | 1017.1 |
| 20260903082726 | 67 | 228 | 4.0 | 5.0 | 0.00 | 0.00 | 0.00 | 19 | 1017.1 |
| 20260903081725 | 67 | 223 | 4.0 | 7.0 | 0.00 | 0.00 | 0.00 | 18 | 1017.2 |
| 20260903080724 | 68 | 225 | 4.0 | 6.0 | 0.00 | 0.00 | 0.00 | 17 | 1017.1 |
| 20260903075723 | 68 | 247 | 5.0 | 7.0 | 0.00 | 0.00 | 0.00 | 17 | 1016.9 |
| 20260903074723 | 68 | 232 | 3.0 | 6.0 | 0.00 | 0.00 | 0.00 | 16 | 1016.9 |
| 20260903074623 | 69 | 225 | 3.0 | 5.0 | 0.00 | 0.00 | 0.00 | 17 | 1016.9 |
| 20260903073623 | 69 | 236 | 5.0 | 9.0 | 0.00 | 0.00 | 0.00 | 17 | 1016.9 |
| 20260903072722 | 69 | 225 | 4.0 | 7.0 | 0.00 | 0.00 | 0.00 | 17 | 1016.6 |
| 20260903071724 | 70 | 227 | 3.0 | 4.0 | 0.00 | 0.00 | 0.00 | 15 | 1016.6 |
| 20260903070724 | 71 | 220 | 2.0 | 4.0 | 0.00 | 0.00 | 0.00 | 15 | 1016.5 |
| 20260903064723 | 71 | 209 | 4.0 | 8.0 | 0.00 | 0.00 | 0.00 | 15 | 1016.2 |
| 20260903063722 | 72 | 221 | 5.0 | 7.0 | 0.00 | 0.00 | 0.00 | 14 | 1016.3 |
| 20260903062723 | 72 | 232 | 5.0 | 8.0 | 0.00 | 0.00 | 0.00 | 14 | 1016.1 |
| 20260903061740 | 72 | 231 | 5.0 | 10.0 | 0.00 | 0.00 | 0.00 | 14 | 1016.0 |
| 20260903060824 | 73 | 240 | 6.0 | 9.0 | 0.00 | 0.00 | 0.00 | 13 | 1015.9 |
| 20260903055922 | 74 | 225 | 4.0 | 6.0 | 0.00 | 0.00 | 0.00 | 13 | 1015.8 |
| 20260903054922 | 74 | 248 | 6.0 | 10.0 | 0.00 | 0.00 | 0.00 | 13 | 1015.8 |
| 20260903053923 | 74 | 247 | 3.0 | 5.0 | 0.00 | 0.00 | 0.00 | 13 | 1015.6 |
| 20260903052924 | 75 | 229 | 5.0 | 8.0 | 0.00 | 0.00 | 0.00 | 13 | 1015.7 |
| 20260903051924 | 75 | 226 | 5.0 | 11.0 | 0.00 | 0.00 | 0.00 | 12 | 1015.7 |
| 20260903051023 | 75 | 230 | 9.0 | 13.0 | 0.00 | 0.00 | 0.00 | 13 | 1015.7 |
| 20260903050038 | 76 | 259 | 4.0 | 7.0 | 0.00 | 0.00 | 0.00 | 11 | 1015.9 |
| 20260903045126 | 77 | 230 | 5.0 | 8.0 | 0.00 | 0.00 | 0.00 | 11 | 1015.6 |
| 20260903044126 | 77 | 206 | 5.0 | 10.0 | 0.00 | 0.00 | 0.00 | 11 | 1015.7 |
| 20260903043223 | 77 | 227 | 8.0 | 14.0 | 0.00 | 0.00 | 0.00 | 11 | 1015.5 |
| 20260903042224 | 77 | 191 | 8.0 | 11.0 | 0.00 | 0.00 | 0.00 | 10 | 1015.5 |
| 20260903040223 | 78 | 191 | 7.0 | 10.0 | 0.00 | 0.00 | 0.00 | 10 | 1015.2 |
| 20260903035240 | 78 | 190 | 8.0 | 12.0 | 0.00 | 0.00 | 0.00 | 10 | 1015.2 |
| 20260903034324 | 77 | 220 | 9.0 | 13.0 | 0.00 | 0.00 | 0.00 | 11 | 1015.3 |
| 20260903033423 | 78 | 190 | 5.0 | 10.0 | 0.00 | 0.00 | 0.00 | 11 | 1015.2 |
| 20260903032522 | 78 | 187 | 6.0 | 9.0 | 0.00 | 0.00 | 0.00 | 11 | 1015.2 |
| 20260903031524 | 78 | 193 | 6.0 | 8.0 | 0.00 | 0.00 | 0.00 | 11 | 1015.0 |
| 20260903025523 | 79 | 191 | 9.0 | 11.0 | 0.00 | 0.00 | 0.00 | 11 | 1014.9 |
| 20260903024523 | 79 | 191 | 8.0 | 12.0 | 0.00 | 0.00 | 0.00 | 11 | 1014.9 |
| 20260903023524 | 79 | 191 | 10.0 | 13.0 | 0.00 | 0.00 | 0.00 | 11 | 1014.8 |
| 20260903023441 | 79 | 210 | 9.0 | 14.0 | 0.00 | 0.00 | 0.00 | 11 | 1014.7 |
| 20260903022525 | 78 | 184 | 14.0 | 18.0 | 0.00 | 0.00 | 0.00 | 12 | 1014.7 |
| 20260903021623 | 78 | 187 | 8.0 | 11.0 | 0.00 | 0.00 | 0.00 | 13 | 1014.7 |
| 20260903020623 | 78 | 195 | 4.0 | 6.0 | 0.00 | 0.00 | 0.00 | 11 | 1014.6 |
| 20260903013722 | 79 | 188 | 6.0 | 9.0 | 0.00 | 0.00 | 0.00 | 13 | 1014.8 |
| 20260903012725 | 80 | 194 | 4.0 | 6.0 | 0.00 | 0.00 | 0.00 | 13 | 1015.0 |
| 20260903011723 | 80 | 202 | 5.0 | 7.0 | 0.00 | 0.00 | 0.00 | 12 | 1015.1 |
| 20260903010722 | 80 | 191 | 8.0 | 14.0 | 0.00 | 0.00 | 0.00 | 13 | 1015.1 |
| 20260903005723 | 80 | 234 | 11.0 | 18.0 | 0.00 | 0.00 | 0.00 | 13 | 1015.3 |
| 20260903004741 | 80 | 215 | 4.0 | 9.0 | 0.00 | 0.00 | 0.00 | 14 | 1015.2 |
| 20260903003824 | 81 | 231 | 6.0 | 9.0 | 0.00 | 0.00 | 0.00 | 14 | 1015.3 |
| 20260903002825 | 81 | 211 | 6.0 | 8.0 | 0.00 | 0.00 | 0.00 | 13 | 1015.3 |
| 20260903001824 | 81 | 214 | 7.0 | 11.0 | 0.00 | 0.00 | 0.00 | 15 | 1015.4 |
| 20260903000823 | 81 | 236 | 7.0 | 11.0 | 0.00 | 0.00 | 0.00 | 14 | 1015.3 |
| 20260902235922 | 81 | 211 | 6.0 | 9.0 | 0.00 | 0.00 | 0.00 | 15 | 1015.4 |
| 20260902233925 | 82 | 197 | 7.0 | 10.0 | 0.00 | 0.00 | 0.00 | 15 | 1015.5 |
| 20260902232922 | 81 | 211 | 6.0 | 8.0 | 0.00 | 0.00 | 0.00 | 16 | 1015.4 |
| 20260902231922 | 81 | 232 | 7.0 | 10.0 | 0.00 | 0.00 | 0.00 | 16 | 1015.6 |
| 20260902230922 | 81 | 224 | 8.0 | 14.0 | 0.00 | 0.00 | 0.00 | 16 | 1015.7 |
| 20260902225924 | 81 | 204 | 8.0 | 16.0 | 0.00 | 0.00 | 0.00 | 17 | 1015.7 |
| 20260902225824 | 81 | 200 | 8.0 | 15.0 | 0.00 | 0.00 | 0.00 | 16 | 1015.8 |
| 20260902224842 | 82 | 209 | 5.0 | 12.0 | 0.00 | 0.00 | 0.00 | 16 | 1015.9 |
| 20260902224722 | 82 | 224 | 6.0 | 13.0 | 0.00 | 0.00 | 0.00 | 16 | 1015.9 |
| 20260902223723 | 82 | 221 | 8.0 | 11.0 | 0.00 | 0.00 | 0.00 | 17 | 1015.7 |
| 20260902222823 | 82 | 211 | 6.0 | 12.0 | 0.00 | 0.00 | 0.00 | 16 | 1015.9 |
| 20260902221825 | 83 | 212 | 10.0 | 16.0 | 0.00 | 0.00 | 0.00 | 16 | 1015.6 |
| 20260902215825 | 82 | 235 | 5.0 | 8.0 | 0.00 | 0.00 | 0.00 | 18 | 1016.0 |
| 20260902213923 | 82 | 211 | 5.0 | 9.0 | 0.00 | 0.00 | 0.00 | 20 | 1016.1 |
| 20260902212941 | 82 | 237 | 6.0 | 10.0 | 0.00 | 0.00 | 0.00 | 20 | 1016.3 |
| 20260902212023 | 82 | 210 | 8.0 | 14.0 | 0.00 | 0.00 | 0.00 | 19 | 1016.3 |
| 20260902211024 | 83 | 244 | 7.0 | 11.0 | 0.00 | 0.00 | 0.00 | 19 | 1016.3 |
| 20260902210041 | 82 | 195 | 8.0 | 11.0 | 0.00 | 0.00 | 0.00 | 19 | 1016.2 |
| 20260902205024 | 83 | 205 | 8.0 | 15.0 | 0.00 | 0.00 | 0.00 | 19 | 1016.4 |
| 20260902204122 | 82 | 224 | 8.0 | 15.0 | 0.00 | 0.00 | 0.00 | 20 | 1016.4 |
| 20260902203124 | 82 | 215 | 4.0 | 9.0 | 0.00 | 0.00 | 0.00 | 21 | 1016.4 |